sensor_id;sensor_type;location;lat;lon;timestamp;pressure;altitude;pressure_sealevel;temperature;humidity
17505;BME280;8870;50.950;11.762;2023-02-12T00:01:33;100461.44;;;4.91;100.00
17505;BME280;8870;50.950;11.762;2023-02-12T00:07:05;100459.56;;;4.93;100.00
17505;BME280;8870;50.950;11.762;2023-02-12T00:12:50;100471.16;;;4.92;100.00
17505;BME280;8870;50.950;11.762;2023-02-12T00:18:11;100459.63;;;4.92;100.00
17505;BME280;8870;50.950;11.762;2023-02-12T00:23:42;100461.28;;;4.94;100.00
17505;BME280;8870;50.950;11.762;2023-02-12T00:29:17;100460.41;;;4.94;100.00
17505;BME280;8870;50.950;11.762;2023-02-12T00:34:58;100466.84;;;4.90;100.00
17505;BME280;8870;50.950;11.762;2023-02-12T00:40:17;100478.47;;;4.89;100.00
17505;BME280;8870;50.950;11.762;2023-02-12T00:45:55;100484.63;;;4.91;100.00
17505;BME280;8870;50.950;11.762;2023-02-12T00:51:14;100480.13;;;4.91;100.00
17505;BME280;8870;50.950;11.762;2023-02-12T00:56:45;100483.00;;;4.87;100.00
17505;BME280;8870;50.950;11.762;2023-02-12T01:02:29;100464.41;;;4.85;100.00
17505;BME280;8870;50.950;11.762;2023-02-12T01:08:24;100466.13;;;4.86;100.00
17505;BME280;8870;50.950;11.762;2023-02-12T01:13:44;100474.28;;;4.83;100.00
17505;BME280;8870;50.950;11.762;2023-02-12T01:19:24;100479.56;;;4.85;100.00
17505;BME280;8870;50.950;11.762;2023-02-12T01:24:46;100486.56;;;4.87;100.00
17505;BME280;8870;50.950;11.762;2023-02-12T01:30:18;100486.63;;;4.86;100.00
17505;BME280;8870;50.950;11.762;2023-02-12T01:35:42;100499.13;;;4.85;100.00
17505;BME280;8870;50.950;11.762;2023-02-12T01:41:22;100498.19;;;4.86;100.00
17505;BME280;8870;50.950;11.762;2023-02-12T01:46:42;100484.84;;;4.86;100.00
17505;BME280;8870;50.950;11.762;2023-02-12T01:52:20;100483.91;;;4.87;100.00
17505;BME280;8870;50.950;11.762;2023-02-12T01:57:47;100478.69;;;4.84;100.00
17505;BME280;8870;50.950;11.762;2023-02-12T02:03:19;100473.41;;;4.83;100.00
17505;BME280;8870;50.950;11.762;2023-02-12T02:08:44;100472.47;;;4.84;100.00
17505;BME280;8870;50.950;11.762;2023-02-12T02:14:19;100473.50;;;4.81;100.00
17505;BME280;8870;50.950;11.762;2023-02-12T02:26:12;100472.47;;;4.84;100.00
17505;BME280;8870;50.950;11.762;2023-02-12T02:31:42;100470.75;;;4.83;100.00
17505;BME280;8870;50.950;11.762;2023-02-12T02:37:18;100470.75;;;4.83;100.00
17505;BME280;8870;50.950;11.762;2023-02-12T02:42:42;100460.06;;;4.83;100.00
17505;BME280;8870;50.950;11.762;2023-02-12T02:48:23;100463.59;;;4.83;100.00
17505;BME280;8870;50.950;11.762;2023-02-12T02:53:50;100462.69;;;4.84;100.00
17505;BME280;8870;50.950;11.762;2023-02-12T02:59:42;100466.28;;;4.83;100.00
17505;BME280;8870;50.950;11.762;2023-02-12T03:05:21;100459.06;;;4.85;100.00
17505;BME280;8870;50.950;11.762;2023-02-12T03:11:00;100475.88;;;4.87;100.00
17505;BME280;8870;50.950;11.762;2023-02-12T03:16:27;100474.16;;;4.86;100.00
17505;BME280;8870;50.950;11.762;2023-02-12T03:22:19;100481.28;;;4.86;100.00
17505;BME280;8870;50.950;11.762;2023-02-12T03:27:43;100490.94;;;4.88;100.00
17505;BME280;8870;50.950;11.762;2023-02-12T03:33:20;100500.56;;;4.92;100.00
17505;BME280;8870;50.950;11.762;2023-02-12T03:38:45;100502.06;;;4.98;100.00
17505;BME280;8870;50.950;11.762;2023-02-12T03:44:28;100504.50;;;5.03;100.00
17505;BME280;8870;50.950;11.762;2023-02-12T03:49:58;100501.78;;;5.04;100.00
17505;BME280;8870;50.950;11.762;2023-02-12T03:55:39;100509.78;;;5.04;100.00
17505;BME280;8870;50.950;11.762;2023-02-12T04:00:59;100508.78;;;5.07;100.00
17505;BME280;8870;50.950;11.762;2023-02-12T04:06:31;100518.44;;;5.09;100.00
17505;BME280;8870;50.950;11.762;2023-02-12T04:12:03;100522.00;;;5.10;100.00
17505;BME280;8870;50.950;11.762;2023-02-12T04:17:45;100527.47;;;5.07;100.00
17505;BME280;8870;50.950;11.762;2023-02-12T04:23:11;100528.28;;;5.09;100.00
17505;BME280;8870;50.950;11.762;2023-02-12T04:28:55;100538.16;;;5.07;100.00
17505;BME280;8870;50.950;11.762;2023-02-12T04:34:20;100541.78;;;5.06;100.00
17505;BME280;8870;50.950;11.762;2023-02-12T04:39:55;100548.84;;;5.07;100.00
17505;BME280;8870;50.950;11.762;2023-02-12T04:45:20;100542.63;;;5.06;100.00
17505;BME280;8870;50.950;11.762;2023-02-12T04:50:54;100548.84;;;5.07;100.00
17505;BME280;8870;50.950;11.762;2023-02-12T04:56:12;100552.59;;;5.03;100.00
17505;BME280;8870;50.950;11.762;2023-02-12T05:01:46;100549.13;;;5.01;100.00
17505;BME280;8870;50.950;11.762;2023-02-12T05:07:12;100553.53;;;5.02;100.00
17505;BME280;8870;50.950;11.762;2023-02-12T05:12:43;100550.94;;;5.00;100.00
17505;BME280;8870;50.950;11.762;2023-02-12T05:18:04;100550.09;;;5.00;100.00
17505;BME280;8870;50.950;11.762;2023-02-12T05:23:37;100557.22;;;4.99;100.00
17505;BME280;8870;50.950;11.762;2023-02-12T05:28:55;100547.44;;;5.00;100.00
17505;BME280;8870;50.950;11.762;2023-02-12T05:34:29;100555.44;;;5.00;100.00
17505;BME280;8870;50.950;11.762;2023-02-12T05:39:48;100554.34;;;5.04;100.00
17505;BME280;8870;50.950;11.762;2023-02-12T05:45:20;100546.41;;;5.02;100.00
17505;BME280;8870;50.950;11.762;2023-02-12T05:50:45;100552.78;;;5.00;100.00
17505;BME280;8870;50.950;11.762;2023-02-12T05:56:20;100549.13;;;5.01;100.00
17505;BME280;8870;50.950;11.762;2023-02-12T06:01:41;100553.63;;;5.00;100.00
17505;BME280;8870;50.950;11.762;2023-02-12T06:07:16;100554.47;;;5.01;100.00
17505;BME280;8870;50.950;11.762;2023-02-12T06:12:52;100564.31;;;5.00;100.00
17505;BME280;8870;50.950;11.762;2023-02-12T06:18:11;100556.56;;;4.94;100.00
17505;BME280;8870;50.950;11.762;2023-02-12T06:23:45;100563.88;;;4.90;100.00
17505;BME280;8870;50.950;11.762;2023-02-12T06:29:04;100578.16;;;4.89;100.00
17505;BME280;8870;50.950;11.762;2023-02-12T06:34:35;100583.66;;;4.86;100.00
17505;BME280;8870;50.950;11.762;2023-02-12T06:39:55;100581.94;;;4.85;100.00
17505;BME280;8870;50.950;11.762;2023-02-12T06:45:27;100589.88;;;4.87;100.00
17505;BME280;8870;50.950;11.762;2023-02-12T06:50:45;100599.69;;;4.86;100.00
17505;BME280;8870;50.950;11.762;2023-02-12T06:56:19;100610.22;;;4.89;100.00
17505;BME280;8870;50.950;11.762;2023-02-12T07:01:38;100614.63;;;4.90;100.00
17505;BME280;8870;50.950;11.762;2023-02-12T07:07:10;100617.28;;;4.90;100.00
17505;BME280;8870;50.950;11.762;2023-02-12T07:12:45;100620.13;;;4.87;100.00
17505;BME280;8870;50.950;11.762;2023-02-12T07:18:04;100633.53;;;4.86;100.00
17505;BME280;8870;50.950;11.762;2023-02-12T07:23:35;100638.06;;;4.84;100.00
17505;BME280;8870;50.950;11.762;2023-02-12T07:29:09;100643.38;;;4.85;100.00
17505;BME280;8870;50.950;11.762;2023-02-12T07:34:30;100641.50;;;4.87;100.00
17505;BME280;8870;50.950;11.762;2023-02-12T07:40:03;100652.09;;;4.89;100.00
17505;BME280;8870;50.950;11.762;2023-02-12T07:45:24;100658.47;;;4.86;100.00
17505;BME280;8870;50.950;11.762;2023-02-12T07:50:56;100660.03;;;4.90;100.00
17505;BME280;8870;50.950;11.762;2023-02-12T07:56:15;100660.75;;;4.94;100.00
17505;BME280;8870;50.950;11.762;2023-02-12T08:01:54;100663.25;;;4.99;100.00
17505;BME280;8870;50.950;11.762;2023-02-12T08:07:22;100662.22;;;5.01;100.00
17505;BME280;8870;50.950;11.762;2023-02-12T08:12:53;100670.13;;;5.04;100.00
17505;BME280;8870;50.950;11.762;2023-02-12T08:18:13;100668.97;;;5.10;100.00
17505;BME280;8870;50.950;11.762;2023-02-12T08:23:45;100668.75;;;5.15;100.00
17505;BME280;8870;50.950;11.762;2023-02-12T08:29:07;100676.47;;;5.21;100.00
17505;BME280;8870;50.950;11.762;2023-02-12T08:34:42;100684.34;;;5.24;100.00
17505;BME280;8870;50.950;11.762;2023-02-12T08:40:01;100683.19;;;5.30;100.00
17505;BME280;8870;50.950;11.762;2023-02-12T08:45:34;100690.91;;;5.36;100.00
17505;BME280;8870;50.950;11.762;2023-02-12T08:50:54;100692.50;;;5.40;100.00
17505;BME280;8870;50.950;11.762;2023-02-12T08:56:27;100702.13;;;5.44;100.00
17505;BME280;8870;50.950;11.762;2023-02-12T09:01:49;100706.47;;;5.47;100.00
17505;BME280;8870;50.950;11.762;2023-02-12T09:07:23;100703.56;;;5.51;100.00
17505;BME280;8870;50.950;11.762;2023-02-12T09:12:42;100708.69;;;5.56;100.00
17505;BME280;8870;50.950;11.762;2023-02-12T09:18:14;100708.47;;;5.61;100.00
17505;BME280;8870;50.950;11.762;2023-02-12T09:23:35;100718.00;;;5.66;100.00
17505;BME280;8870;50.950;11.762;2023-02-12T09:29:07;100715.28;;;5.68;100.00
17505;BME280;8870;50.950;11.762;2023-02-12T09:34:25;100723.22;;;5.69;100.00
17505;BME280;8870;50.950;11.762;2023-02-12T09:39:58;100728.66;;;5.68;100.00
17505;BME280;8870;50.950;11.762;2023-02-12T09:45:19;100737.47;;;5.70;100.00
17505;BME280;8870;50.950;11.762;2023-02-12T09:50:53;100749.13;;;5.69;100.00
17505;BME280;8870;50.950;11.762;2023-02-12T09:56:16;100741.88;;;5.71;100.00
17505;BME280;8870;50.950;11.762;2023-02-12T10:01:48;100753.38;;;5.73;100.00
17505;BME280;8870;50.950;11.762;2023-02-12T10:07:34;100759.50;;;5.75;100.00
17505;BME280;8870;50.950;11.762;2023-02-12T10:13:22;100755.91;;;5.76;100.00
17505;BME280;8870;50.950;11.762;2023-02-12T10:19:07;100766.16;;;5.85;100.00
17505;BME280;8870;50.950;11.762;2023-02-12T10:24:52;100764.16;;;5.91;100.00
17505;BME280;8870;50.950;11.762;2023-02-12T10:30:21;100775.56;;;5.94;100.00
17505;BME280;8870;50.950;11.762;2023-02-12T10:35:59;100771.75;;;6.00;100.00
17505;BME280;8870;50.950;11.762;2023-02-12T10:41:29;100768.94;;;6.03;100.00
17505;BME280;8870;50.950;11.762;2023-02-12T10:47:05;100781.88;;;6.12;100.00
17505;BME280;8870;50.950;11.762;2023-02-12T10:52:32;100779.19;;;6.12;100.00
17505;BME280;8870;50.950;11.762;2023-02-12T10:58:17;100771.88;;;6.16;100.00
17505;BME280;8870;50.950;11.762;2023-02-12T11:03:47;100773.38;;;6.22;100.00
17505;BME280;8870;50.950;11.762;2023-02-12T11:09:26;100762.81;;;6.19;100.00
17505;BME280;8870;50.950;11.762;2023-02-12T11:14:49;100759.06;;;6.23;100.00
17505;BME280;8870;50.950;11.762;2023-02-12T11:20:28;100757.81;;;6.30;100.00
17505;BME280;8870;50.950;11.762;2023-02-12T11:25:54;100756.72;;;6.34;100.00
17505;BME280;8870;50.950;11.762;2023-02-12T11:31:27;100749.41;;;6.38;100.00
17505;BME280;8870;50.950;11.762;2023-02-12T11:36:50;100749.16;;;6.42;100.00
17505;BME280;8870;50.950;11.762;2023-02-12T11:42:24;100743.66;;;6.45;100.00
17505;BME280;8870;50.950;11.762;2023-02-12T11:47:43;100740.69;;;6.52;100.00
17505;BME280;8870;50.950;11.762;2023-02-12T11:53:21;100748.41;;;6.58;100.00
17505;BME280;8870;50.950;11.762;2023-02-12T11:58:42;100745.31;;;6.66;100.00
17505;BME280;8870;50.950;11.762;2023-02-12T12:04:19;100746.03;;;6.69;100.00
17505;BME280;8870;50.950;11.762;2023-02-12T12:09:46;100737.84;;;6.72;100.00
17505;BME280;8870;50.950;11.762;2023-02-12T12:15:22;100736.72;;;6.76;100.00
17505;BME280;8870;50.950;11.762;2023-02-12T12:20:57;100735.00;;;6.75;100.00
17505;BME280;8870;50.950;11.762;2023-02-12T12:26:33;100733.97;;;6.78;100.00
17505;BME280;8870;50.950;11.762;2023-02-12T12:31:56;100729.47;;;6.78;100.00
17505;BME280;8870;50.950;11.762;2023-02-12T12:37:35;100732.78;;;6.84;100.00
17505;BME280;8870;50.950;11.762;2023-02-12T12:43:10;100722.78;;;6.87;100.00
17505;BME280;8870;50.950;11.762;2023-02-12T12:49:06;100707.88;;;6.82;100.00
17505;BME280;8870;50.950;11.762;2023-02-12T12:54:43;100698.66;;;6.87;100.00
17505;BME280;8870;50.950;11.762;2023-02-12T13:00:30;100691.25;;;6.92;100.00
17505;BME280;8870;50.950;11.762;2023-02-12T13:06:07;100682.88;;;6.99;100.00
17505;BME280;8870;50.950;11.762;2023-02-12T13:11:52;100672.69;;;7.05;100.00
17505;BME280;8870;50.950;11.762;2023-02-12T13:17:22;100655.94;;;7.18;100.00
17505;BME280;8870;50.950;11.762;2023-02-12T13:22:59;100643.84;;;7.27;100.00
17505;BME280;8870;50.950;11.762;2023-02-12T13:28:26;100637.16;;;7.34;100.00
17505;BME280;8870;50.950;11.762;2023-02-12T13:34:06;100624.44;;;7.37;100.00
17505;BME280;8870;50.950;11.762;2023-02-12T13:39:31;100622.22;;;7.46;100.00
17505;BME280;8870;50.950;11.762;2023-02-12T13:45:16;100612.19;;;7.49;100.00
17505;BME280;8870;50.950;11.762;2023-02-12T13:50:45;100593.41;;;7.49;100.00
17505;BME280;8870;50.950;11.762;2023-02-12T13:56:30;100567.97;;;7.40;100.00
17505;BME280;8870;50.950;11.762;2023-02-12T14:01:53;100562.97;;;7.34;100.00
17505;BME280;8870;50.950;11.762;2023-02-12T14:07:40;100563.97;;;7.32;100.00
17505;BME280;8870;50.950;11.762;2023-02-12T14:13:16;100568.50;;;7.31;100.00
17505;BME280;8870;50.950;11.762;2023-02-12T14:18:35;100573.84;;;7.31;100.00
17505;BME280;8870;50.950;11.762;2023-02-12T14:30:32;100562.75;;;7.37;100.00
17505;BME280;8870;50.950;11.762;2023-02-12T14:36:16;100559.22;;;7.37;100.00
17505;BME280;8870;50.950;11.762;2023-02-12T14:41:36;100559.50;;;7.32;100.00
17505;BME280;8870;50.950;11.762;2023-02-12T14:52:52;100566.84;;;7.29;100.00
17505;BME280;8870;50.950;11.762;2023-02-12T14:58:27;100569.78;;;7.24;100.00
17505;BME280;8870;50.950;11.762;2023-02-12T15:03:54;100566.16;;;7.25;100.00
17505;BME280;8870;50.950;11.762;2023-02-12T15:09:31;100568.25;;;7.20;100.00
17505;BME280;8870;50.950;11.762;2023-02-12T15:15:00;100561.94;;;7.21;100.00
17505;BME280;8870;50.950;11.762;2023-02-12T15:20:42;100560.97;;;7.22;100.00
17505;BME280;8870;50.950;11.762;2023-02-12T15:26:03;100559.94;;;7.24;100.00
17505;BME280;8870;50.950;11.762;2023-02-12T15:31:34;100568.81;;;7.25;100.00
17505;BME280;8870;50.950;11.762;2023-02-12T15:36:57;100560.78;;;7.25;100.00
17505;BME280;8870;50.950;11.762;2023-02-12T15:42:30;100559.06;;;7.24;100.00
17505;BME280;8870;50.950;11.762;2023-02-12T15:48:10;100560.03;;;7.23;100.00
17505;BME280;8870;50.950;11.762;2023-02-12T15:53:44;100565.38;;;7.23;100.00
17505;BME280;8870;50.950;11.762;2023-02-12T15:59:02;100568.91;;;7.23;100.00
17505;BME280;8870;50.950;11.762;2023-02-12T16:04:35;100565.38;;;7.23;100.00
17505;BME280;8870;50.950;11.762;2023-02-12T16:10:00;100564.59;;;7.21;100.00
17505;BME280;8870;50.950;11.762;2023-02-12T16:15:32;100564.78;;;7.18;100.00
17505;BME280;8870;50.950;11.762;2023-02-12T16:21:02;100566.66;;;7.16;100.00
17505;BME280;8870;50.950;11.762;2023-02-12T16:26:37;100564.16;;;7.13;100.00
17505;BME280;8870;50.950;11.762;2023-02-12T16:31:57;100570.47;;;7.12;100.00
17505;BME280;8870;50.950;11.762;2023-02-12T16:37:41;100581.38;;;7.08;100.00
17505;BME280;8870;50.950;11.762;2023-02-12T16:43:23;100586.81;;;7.07;100.00
17505;BME280;8870;50.950;11.762;2023-02-12T16:48:55;100595.72;;;7.07;100.00
17505;BME280;8870;50.950;11.762;2023-02-12T16:54:27;100593.13;;;7.06;100.00
17505;BME280;8870;50.950;11.762;2023-02-12T17:00:03;100605.81;;;7.02;100.00
17505;BME280;8870;50.950;11.762;2023-02-12T17:05:23;100605.03;;;7.00;100.00
17505;BME280;8870;50.950;11.762;2023-02-12T17:10:56;100607.81;;;6.99;100.00
17505;BME280;8870;50.950;11.762;2023-02-12T17:16:21;100609.66;;;6.98;100.00
17505;BME280;8870;50.950;11.762;2023-02-12T17:21:53;100624.00;;;6.97;100.00
17505;BME280;8870;50.950;11.762;2023-02-12T17:27:13;100625.78;;;6.97;100.00
17505;BME280;8870;50.950;11.762;2023-02-12T17:32:49;100611.69;;;6.93;100.00
17505;BME280;8870;50.950;11.762;2023-02-12T17:38:07;100615.47;;;6.89;100.00
17505;BME280;8870;50.950;11.762;2023-02-12T17:43:40;100621.88;;;6.86;100.00
17505;BME280;8870;50.950;11.762;2023-02-12T17:49:02;100614.09;;;6.82;100.00
17505;BME280;8870;50.950;11.762;2023-02-12T17:54:34;100609.50;;;6.68;100.00
17505;BME280;8870;50.950;11.762;2023-02-12T17:59:53;100609.56;;;6.66;100.00
17505;BME280;8870;50.950;11.762;2023-02-12T18:05:27;100603.59;;;6.61;100.00
17505;BME280;8870;50.950;11.762;2023-02-12T18:10:45;100608.31;;;6.56;100.00
17505;BME280;8870;50.950;11.762;2023-02-12T18:16:17;100612.34;;;6.47;100.00
17505;BME280;8870;50.950;11.762;2023-02-12T18:21:40;100624.25;;;6.41;100.00
17505;BME280;8870;50.950;11.762;2023-02-12T18:27:11;100621.09;;;6.33;100.00
17505;BME280;8870;50.950;11.762;2023-02-12T18:32:31;100635.91;;;6.23;100.00
17505;BME280;8870;50.950;11.762;2023-02-12T18:38:05;100629.31;;;6.12;100.00
17505;BME280;8870;50.950;11.762;2023-02-12T18:43:23;100643.06;;;6.05;100.00
17505;BME280;8870;50.950;11.762;2023-02-12T18:48:58;100637.88;;;6.01;100.00
17505;BME280;8870;50.950;11.762;2023-02-12T18:54:20;100645.16;;;5.98;100.00
17505;BME280;8870;50.950;11.762;2023-02-12T18:59:51;100643.38;;;5.98;100.00
17505;BME280;8870;50.950;11.762;2023-02-12T19:05:16;100648.78;;;5.97;100.00
17505;BME280;8870;50.950;11.762;2023-02-12T19:10:51;100644.44;;;5.94;100.00
17505;BME280;8870;50.950;11.762;2023-02-12T19:16:12;100644.69;;;5.90;100.00
17505;BME280;8870;50.950;11.762;2023-02-12T19:21:44;100647.28;;;5.91;100.00
17505;BME280;8870;50.950;11.762;2023-02-12T19:27:06;100646.47;;;5.89;100.00
17505;BME280;8870;50.950;11.762;2023-02-12T19:32:39;100660.16;;;5.83;100.00
17505;BME280;8870;50.950;11.762;2023-02-12T19:37:57;100669.22;;;5.80;100.00
17505;BME280;8870;50.950;11.762;2023-02-12T19:43:31;100672.03;;;5.77;100.00
17505;BME280;8870;50.950;11.762;2023-02-12T19:48:53;100671.38;;;5.72;100.00
17505;BME280;8870;50.950;11.762;2023-02-12T19:54:25;100665.25;;;5.70;100.00
17505;BME280;8870;50.950;11.762;2023-02-12T19:59:46;100659.97;;;5.68;100.00
17505;BME280;8870;50.950;11.762;2023-02-12T20:05:17;100653.78;;;5.68;100.00
17505;BME280;8870;50.950;11.762;2023-02-12T20:10:37;100649.50;;;5.64;100.00
17505;BME280;8870;50.950;11.762;2023-02-12T20:16:14;100657.66;;;5.61;100.00
17505;BME280;8870;50.950;11.762;2023-02-12T20:21:32;100654.19;;;5.59;100.00
17505;BME280;8870;50.950;11.762;2023-02-12T20:27:05;100658.19;;;5.69;100.00
17505;BME280;8870;50.950;11.762;2023-02-12T20:32:29;100665.25;;;5.70;100.00
17505;BME280;8870;50.950;11.762;2023-02-12T20:38:04;100655.41;;;5.70;100.00
17505;BME280;8870;50.950;11.762;2023-02-12T20:43:14;100659.03;;;5.69;100.00
17505;BME280;8870;50.950;11.762;2023-02-12T20:48:48;100649.03;;;5.73;100.00
17505;BME280;8870;50.950;11.762;2023-02-12T20:54:09;100647.31;;;5.72;100.00
17505;BME280;8870;50.950;11.762;2023-02-12T20:59:41;100644.00;;;5.67;100.00
17505;BME280;8870;50.950;11.762;2023-02-12T21:05:04;100644.00;;;5.67;100.00
17505;BME280;8870;50.950;11.762;2023-02-12T21:10:35;100641.09;;;5.71;100.00
17505;BME280;8870;50.950;11.762;2023-02-12T21:16:02;100640.53;;;5.65;100.00
17505;BME280;8870;50.950;11.762;2023-02-12T21:21:38;100641.56;;;5.62;100.00
17505;BME280;8870;50.950;11.762;2023-02-12T21:26:58;100643.28;;;5.63;100.00
17505;BME280;8870;50.950;11.762;2023-02-12T21:32:30;100635.31;;;5.62;100.00
17505;BME280;8870;50.950;11.762;2023-02-12T21:37:51;100626.81;;;5.53;100.00
17505;BME280;8870;50.950;11.762;2023-02-12T21:43:30;100623.22;;;5.54;100.00
17505;BME280;8870;50.950;11.762;2023-02-12T21:48:53;100626.69;;;5.57;100.00
17505;BME280;8870;50.950;11.762;2023-02-12T21:54:28;100630.13;;;5.59;100.00
17505;BME280;8870;50.950;11.762;2023-02-12T21:59:46;100622.97;;;5.59;100.00
17505;BME280;8870;50.950;11.762;2023-02-12T22:05:22;100620.22;;;5.61;100.00
17505;BME280;8870;50.950;11.762;2023-02-12T22:11:00;100617.72;;;5.58;100.00
17505;BME280;8870;50.950;11.762;2023-02-12T22:16:31;100606.84;;;5.61;100.00
17505;BME280;8870;50.950;11.762;2023-02-12T22:21:49;100610.47;;;5.60;100.00
17505;BME280;8870;50.950;11.762;2023-02-12T22:27:24;100613.94;;;5.62;100.00
17505;BME280;8870;50.950;11.762;2023-02-12T22:32:42;100612.06;;;5.64;100.00
17505;BME280;8870;50.950;11.762;2023-02-12T22:38:15;100622.91;;;5.61;100.00
17505;BME280;8870;50.950;11.762;2023-02-12T22:43:38;100624.63;;;5.62;100.00
17505;BME280;8870;50.950;11.762;2023-02-12T22:49:09;100621.97;;;5.62;100.00
17505;BME280;8870;50.950;11.762;2023-02-12T22:54:28;100603.56;;;5.55;100.00
17505;BME280;8870;50.950;11.762;2023-02-12T23:00:03;100616.13;;;5.53;100.00
17505;BME280;8870;50.950;11.762;2023-02-12T23:05:45;100621.63;;;5.50;100.00
17505;BME280;8870;50.950;11.762;2023-02-12T23:11:31;100624.44;;;5.47;100.00
17505;BME280;8870;50.950;11.762;2023-02-12T23:16:58;100628.84;;;5.48;100.00
17505;BME280;8870;50.950;11.762;2023-02-12T23:22:29;100622.63;;;5.48;100.00
17505;BME280;8870;50.950;11.762;2023-02-12T23:27:47;100620.06;;;5.46;100.00
17505;BME280;8870;50.950;11.762;2023-02-12T23:33:21;100609.50;;;5.43;100.00
17505;BME280;8870;50.950;11.762;2023-02-12T23:38:39;100605.00;;;5.44;100.00
17505;BME280;8870;50.950;11.762;2023-02-12T23:44:12;100603.50;;;5.38;100.00
17505;BME280;8870;50.950;11.762;2023-02-12T23:49:33;100607.91;;;5.39;100.00
17505;BME280;8870;50.950;11.762;2023-02-12T23:55:05;100603.59;;;5.36;100.00
